Time;durP1;ratioP1;P1;durP2;ratioP2;P2;SDS_P1;SDS_P2;PMS_P1;PMS_P2;Temp;Humidity;BMP_temperature;BMP_pressure;BME280_temperature;BME280_humidity;BME280_pressure;Samples;Min_cycle;Max_cycle;Signal;HPM_P1;HPM_P2
2023/06/20 00:01:58;;;;;;;19.23;13.02;;;;;;;21.11;83.58;101036.44;4894829;29;20033;-87
2023/06/20 00:04:23;;;;;;;16.63;12.27;;;;;;;21.08;83.85;101030.84;4898685;29;20028;-87
2023/06/20 00:06:48;;;;;;;19.17;12.43;;;;;;;21.12;83.50;101027.16;4898830;29;20060;-88
2023/06/20 00:09:14;;;;;;;19.27;12.33;;;;;;;20.97;83.31;101030.41;4898904;29;20032;-87
2023/06/20 00:11:39;;;;;;;19.83;12.87;;;;;;;21.00;83.31;101038.72;4898229;29;20029;-87
2023/06/20 00:14:05;;;;;;;13.50;11.35;;;;;;;20.94;86.30;101033.75;4898766;29;20025;-88
2023/06/20 00:16:30;;;;;;;20.13;12.13;;;;;;;20.96;84.51;101028.78;4897865;29;20504;-88
2023/06/20 00:18:56;;;;;;;19.40;12.27;;;;;;;20.88;84.94;101033.13;4898659;29;20024;-87
2023/06/20 00:21:26;;;;;;;19.23;12.15;;;;;;;20.91;85.22;101032.50;4902616;29;20478;-88
2023/06/20 00:23:54;;;;;;;15.73;12.20;;;;;;;20.88;84.89;101024.97;4897083;29;20048;-87
2023/06/20 00:26:20;;;;;;;16.92;12.25;;;;;;;20.90;83.66;101028.16;4897952;29;20489;-88
2023/06/20 00:28:45;;;;;;;18.40;11.98;;;;;;;20.83;86.25;101028.66;4897835;29;20032;-87
2023/06/20 00:31:11;;;;;;;19.40;13.07;;;;;;;20.75;85.21;101024.00;4906514;29;20124;-87
2023/06/20 00:33:36;;;;;;;15.60;12.23;;;;;;;20.68;84.83;101019.03;4899543;29;20040;-87
2023/06/20 00:36:02;;;;;;;17.08;12.27;;;;;;;20.73;85.18;101027.03;4897733;29;20031;-87
2023/06/20 00:38:29;;;;;;;15.07;12.70;;;;;;;20.68;85.00;101012.81;4898209;29;20028;-88
2023/06/20 00:40:55;;;;;;;16.60;12.18;;;;;;;20.72;84.67;101019.22;4910686;29;20373;-88
2023/06/20 00:43:20;;;;;;;16.52;13.10;;;;;;;20.60;84.64;101019.84;4899122;29;20044;-88
2023/06/20 00:45:45;;;;;;;16.40;12.20;;;;;;;20.53;85.58;101028.50;4895114;29;20041;-88
2023/06/20 00:48:12;;;;;;;15.55;12.43;;;;;;;20.41;86.66;101015.53;4898488;29;20167;-88
2023/06/20 00:50:38;;;;;;;21.07;12.77;;;;;;;20.50;87.19;101018.25;4894891;29;20021;-87
2023/06/20 00:53:05;;;;;;;18.88;13.07;;;;;;;20.54;87.01;101023.84;4900441;29;20035;-87
2023/06/20 00:55:32;;;;;;;18.55;12.32;;;;;;;20.55;86.22;101014.56;4911514;29;20016;-87
2023/06/20 00:57:59;;;;;;;16.48;12.32;;;;;;;20.56;84.53;101010.72;4904347;29;20400;-87
2023/06/20 01:00:26;;;;;;;18.13;12.80;;;;;;;20.56;85.66;101008.78;4913663;29;20099;-88
2023/06/20 01:02:56;;;;;;;18.33;12.13;;;;;;;20.59;84.16;101020.97;4935006;29;20039;-88
2023/06/20 01:05:26;;;;;;;16.47;12.40;;;;;;;20.61;84.82;101007.03;4917134;29;20284;-88
2023/06/20 01:08:02;;;;;;;20.25;12.27;;;;;;;20.51;84.48;101005.44;4907869;29;20516;-88
2023/06/20 01:10:40;;;;;;;17.15;12.77;;;;;;;20.52;84.38;101004.31;4916363;29;20040;-88
2023/06/20 01:13:56;;;;;;;15.77;12.23;;;;;;;20.58;82.94;101003.03;4912424;29;20112;-88
2023/06/20 01:16:35;;;;;;;18.55;12.30;;;;;;;20.59;82.82;101001.94;4892840;29;20426;-88
2023/06/20 01:19:16;;;;;;;17.02;10.68;;;;;;;20.60;82.12;101013.59;4892076;29;20036;-87
2023/06/20 01:21:46;;;;;;;15.07;11.85;;;;;;;20.59;82.23;100999.19;4910700;29;20040;-88
2023/06/20 01:24:22;;;;;;;15.95;12.00;;;;;;;20.52;82.14;100994.25;4915850;29;20500;-88
2023/06/20 01:26:54;;;;;;;18.50;12.18;;;;;;;20.50;82.80;101007.38;4877802;29;20068;-88
2023/06/20 01:29:32;;;;;;;15.60;11.33;;;;;;;20.45;83.15;101004.03;4878864;29;20029;-88
2023/06/20 01:32:00;;;;;;;16.00;11.90;;;;;;;20.53;81.89;101000.47;4871933;29;21039;-88
2023/06/20 01:34:28;;;;;;;18.08;11.98;;;;;;;20.52;82.21;101001.59;4878888;29;20053;-88
2023/06/20 01:36:57;;;;;;;18.10;11.88;;;;;;;20.47;83.08;100982.69;4883712;29;20048;-87
2023/06/20 01:39:25;;;;;;;20.73;12.02;;;;;;;20.50;82.47;100990.22;4896844;29;20044;-88
2023/06/20 01:41:53;;;;;;;18.60;12.32;;;;;;;20.48;81.96;100982.41;4898211;29;20020;-89
2023/06/20 01:44:20;;;;;;;23.55;12.25;;;;;;;20.47;81.64;100985.44;4892064;29;20033;-89
2023/06/20 01:46:49;;;;;;;16.52;11.93;;;;;;;20.52;81.01;100982.53;4880530;29;20068;-89
2023/06/20 01:49:16;;;;;;;15.77;11.45;;;;;;;20.45;80.78;100977.59;4894750;29;20491;-91
2023/06/20 01:51:42;;;;;;;15.75;11.73;;;;;;;20.48;81.05;100967.97;4900814;29;20240;-92
2023/06/20 01:54:09;;;;;;;15.67;11.30;;;;;;;20.47;80.26;100969.91;4901119;29;20509;-92
2023/06/20 01:56:36;;;;;;;16.90;11.87;;;;;;;20.47;80.14;100963.66;4909042;29;20329;-92
2023/06/20 01:59:03;;;;;;;14.73;11.93;;;;;;;20.39;80.84;100974.25;4908619;29;20028;-91
2023/06/20 02:01:31;;;;;;;17.30;11.25;;;;;;;20.38;80.80;100977.25;4897946;29;20433;-91
2023/06/20 02:03:59;;;;;;;14.88;11.82;;;;;;;20.39;80.30;100968.78;4897825;29;20057;-91
2023/06/20 02:06:26;;;;;;;14.85;11.93;;;;;;;20.37;80.30;100970.22;4896490;29;20063;-91
2023/06/20 02:08:54;;;;;;;15.93;11.00;;;;;;;20.31;80.57;100955.97;4899957;29;20115;-91
2023/06/20 02:11:21;;;;;;;16.48;12.35;;;;;;;20.35;80.47;100967.84;4909089;29;20119;-91
2023/06/20 02:13:49;;;;;;;17.70;11.52;;;;;;;20.33;80.12;100958.41;4920341;29;20151;-91
2023/06/20 02:16:16;;;;;;;14.38;11.40;;;;;;;20.31;79.49;100968.81;4928593;29;20036;-90
2023/06/20 02:18:41;;;;;;;15.67;11.03;;;;;;;20.30;79.39;100957.09;4903183;29;20056;-90
2023/06/20 02:21:17;;;;;;;18.83;11.67;;;;;;;20.31;78.88;100960.63;4914597;29;20281;-90
2023/06/20 02:23:47;;;;;;;17.27;11.55;;;;;;;20.27;79.38;100955.03;4886124;29;20101;-91
2023/06/20 02:26:15;;;;;;;17.95;11.70;;;;;;;20.27;79.55;100955.84;4897812;29;20051;-91
2023/06/20 02:28:45;;;;;;;17.97;11.07;;;;;;;20.21;80.56;100956.31;4899395;29;20032;-90
2023/06/20 02:31:16;;;;;;;15.37;11.90;;;;;;;20.18;79.96;100965.13;4905331;29;20332;-94
2023/06/20 02:33:42;;;;;;;16.83;11.07;;;;;;;20.20;80.33;100971.81;4887905;29;20032;-94
2023/06/20 02:36:09;;;;;;;15.68;11.57;;;;;;;20.11;80.64;100969.09;4889445;29;20029;-93
2023/06/20 02:38:34;;;;;;;19.25;11.25;;;;;;;20.07;81.00;100968.16;4894606;29;20553;-94
2023/06/20 02:41:00;;;;;;;13.07;11.13;;;;;;;20.08;81.41;100971.66;4898902;29;20028;-93
2023/06/20 02:43:25;;;;;;;14.20;11.15;;;;;;;20.07;81.19;100970.06;4898691;29;20519;-93
2023/06/20 02:45:57;;;;;;;19.00;11.43;;;;;;;19.99;81.41;100968.94;4898063;29;20088;-93
2023/06/20 02:48:51;;;;;;;18.15;11.35;;;;;;;19.99;80.89;100974.38;4902637;29;20029;-93
2023/06/20 02:51:23;;;;;;;14.43;11.63;;;;;;;19.91;81.58;100964.28;4898248;29;20087;-94
2023/06/20 02:53:57;;;;;;;15.30;11.77;;;;;;;19.89;81.62;100967.34;4898829;29;20039;-93
2023/06/20 02:56:25;;;;;;;14.03;10.47;;;;;;;19.89;81.01;100969.25;4905411;29;20305;-94
2023/06/20 02:58:56;;;;;;;14.30;10.88;;;;;;;19.84;80.75;100959.28;4902511;29;20036;-93
2023/06/20 03:01:25;;;;;;;13.13;10.68;;;;;;;19.83;81.21;100965.84;4923708;29;20044;-91
2023/06/20 03:03:55;;;;;;;15.35;11.32;;;;;;;19.79;81.93;100971.13;4915932;29;20028;-93
2023/06/20 03:06:27;;;;;;;16.90;11.52;;;;;;;19.71;82.12;100966.47;4905810;29;20033;-89
2023/06/20 03:08:54;;;;;;;15.10;11.52;;;;;;;19.70;82.19;100970.31;4898129;29;20119;-91
2023/06/20 03:11:20;;;;;;;15.40;11.48;;;;;;;19.48;83.07;100947.56;4913760;29;20029;-91
2023/06/20 03:13:46;;;;;;;14.27;10.82;;;;;;;19.60;82.68;100960.53;4917693;29;20480;-91
2023/06/20 03:16:12;;;;;;;15.93;11.17;;;;;;;19.59;83.78;100960.84;4906916;29;20047;-92
2023/06/20 03:18:38;;;;;;;15.27;11.48;;;;;;;19.58;82.92;100961.94;4898785;29;20481;-92
2023/06/20 03:21:04;;;;;;;14.37;11.10;;;;;;;19.54;83.82;100958.28;4900885;29;20156;-91
2023/06/20 03:23:29;;;;;;;19.00;10.85;;;;;;;19.56;83.60;100956.03;4902932;29;20056;-91
2023/06/20 03:25:55;;;;;;;16.03;11.70;;;;;;;19.49;84.43;100946.44;4914428;29;20087;-92
2023/06/20 03:28:22;;;;;;;18.55;12.18;;;;;;;19.52;84.37;100951.25;4914696;29;20028;-91
2023/06/20 03:30:47;;;;;;;16.88;12.25;;;;;;;19.47;84.29;100948.66;4907894;29;20544;-91
2023/06/20 03:33:13;;;;;;;15.82;12.02;;;;;;;19.44;85.17;100959.38;4904941;29;20032;-91
2023/06/20 03:35:39;;;;;;;19.03;11.63;;;;;;;19.41;84.05;100958.06;4902354;29;20045;-91
2023/06/20 03:38:04;;;;;;;16.42;11.48;;;;;;;19.46;83.59;100955.22;4886231;29;20044;-91
2023/06/20 03:40:29;;;;;;;14.43;11.90;;;;;;;19.34;85.07;100952.31;4892972;29;20024;-91
2023/06/20 03:42:55;;;;;;;17.67;12.10;;;;;;;19.35;85.45;100970.22;4891052;29;20025;-91
2023/06/20 03:45:21;;;;;;;15.95;12.20;;;;;;;19.29;85.66;100966.03;4884961;29;20026;-91
2023/06/20 03:47:46;;;;;;;19.07;12.67;;;;;;;19.27;85.50;100965.53;4895411;29;20029;-91
2023/06/20 03:50:12;;;;;;;16.83;11.13;;;;;;;19.26;85.69;100972.91;4904574;29;20115;-91
2023/06/20 03:52:37;;;;;;;17.07;11.53;;;;;;;19.31;84.98;100977.38;4918953;29;20042;-91
2023/06/20 03:55:03;;;;;;;14.37;11.80;;;;;;;19.44;86.91;100986.56;4915524;29;20039;-91
2023/06/20 03:57:28;;;;;;;16.92;11.15;;;;;;;19.49;85.48;100989.91;4919588;29;20124;-91
2023/06/20 03:59:54;;;;;;;14.97;11.07;;;;;;;19.57;84.93;100987.53;4909448;29;20050;-91
2023/06/20 04:02:19;;;;;;;13.85;10.55;;;;;;;19.62;84.02;100992.81;4919741;29;20487;-91
2023/06/20 04:04:49;;;;;;;20.10;11.03;;;;;;;19.64;85.35;100998.75;4924704;29;20028;-91
2023/06/20 04:07:18;;;;;;;15.38;11.68;;;;;;;19.63;85.13;100997.94;4907299;29;20040;-91
2023/06/20 04:09:49;;;;;;;15.45;12.10;;;;;;;19.60;84.53;100995.88;4895662;29;20036;-92
2023/06/20 04:12:14;;;;;;;16.50;11.77;;;;;;;19.59;nan;100991.56;4907952;29;20028;-91
2023/06/20 04:14:39;;;;;;;13.77;11.37;;;;;;;19.60;85.23;100998.59;4912229;29;20388;-91
2023/06/20 04:17:05;;;;;;;18.02;12.35;;;;;;;19.61;86.27;100991.22;4909977;29;20393;-91
2023/06/20 04:19:30;;;;;;;14.57;12.07;;;;;;;19.65;85.10;100982.13;4930871;29;20040;-91
2023/06/20 04:21:55;;;;;;;13.90;11.27;;;;;;;19.77;83.57;100981.50;4915948;29;20031;-91
2023/06/20 04:24:21;;;;;;;15.37;12.53;;;;;;;19.81;84.25;100979.75;4901874;29;20129;-92
2023/06/20 04:26:46;;;;;;;17.53;12.77;;;;;;;19.75;85.22;100972.88;4900599;29;20032;-90
2023/06/20 04:29:11;;;;;;;14.70;12.20;;;;;;;19.71;85.48;100971.91;4902673;29;20031;-91
2023/06/20 04:31:36;;;;;;;15.47;11.87;;;;;;;19.63;87.34;100959.88;4918412;29;20532;-92
2023/06/20 04:34:02;;;;;;;19.67;11.83;;;;;;;19.56;86.42;100964.19;4919605;29;20362;-90
2023/06/20 04:36:28;;;;;;;16.17;12.30;;;;;;;19.55;88.53;100968.84;4917090;29;20035;-91
2023/06/20 04:38:54;;;;;;;17.90;12.90;;;;;;;19.62;86.68;100952.06;4912574;29;20043;-93
2023/06/20 04:41:19;;;;;;;17.40;12.43;;;;;;;19.89;86.97;100980.13;4903732;29;20408;-93
2023/06/20 04:43:44;;;;;;;16.03;12.00;;;;;;;20.11;84.88;100960.94;4902061;29;20036;-93
2023/06/20 04:46:13;;;;;;;14.07;10.77;;;;;;;20.62;82.68;100973.25;4907596;29;20044;-92
2023/06/20 04:48:38;;;;;;;18.05;11.95;;;;;;;21.17;79.51;100963.53;4922911;29;20024;-93
2023/06/20 04:51:08;;;;;;;15.70;12.60;;;;;;;22.19;74.18;100952.66;4897062;29;20385;-89
2023/06/20 04:53:36;;;;;;;14.57;12.35;;;;;;;23.37;68.99;100965.25;4904553;29;20052;-88
2023/06/20 04:56:02;;;;;;;15.80;12.27;;;;;;;24.24;64.46;100969.78;4906612;29;20025;-88
2023/06/20 04:58:28;;;;;;;16.80;12.25;;;;;;;24.94;61.47;100958.38;4905718;29;20104;-89
2023/06/20 05:00:57;;;;;;;14.50;11.90;;;;;;;25.63;59.19;100967.44;5183374;23;20111;-88
2023/06/20 05:03:23;;;;;;;13.68;11.30;;;;;;;26.29;55.39;100973.97;4900873;29;20037;-88
2023/06/20 05:05:48;;;;;;;18.85;12.07;;;;;;;26.77;53.92;100967.38;4910718;23;20021;-86
2023/06/20 05:08:14;;;;;;;15.17;11.37;;;;;;;27.00;52.51;100972.09;4888658;29;20263;-86
2023/06/20 05:10:40;;;;;;;15.00;12.65;;;;;;;27.12;51.30;100960.91;4875803;29;20037;-88
2023/06/20 05:13:05;;;;;;;15.77;12.30;;;;;;;27.41;50.87;100960.56;4878328;29;20037;-86
2023/06/20 05:15:31;;;;;;;14.15;12.20;;;;;;;27.81;49.34;100959.16;4877797;29;20081;-86
2023/06/20 05:17:56;;;;;;;16.13;11.93;;;;;;;28.19;49.02;100957.31;4876333;29;20033;-87
2023/06/20 05:20:21;;;;;;;15.83;13.13;;;;;;;28.28;48.83;100956.22;4877870;29;20085;-86
2023/06/20 05:22:48;;;;;;;18.40;12.80;;;;;;;28.39;48.37;100949.63;4877381;29;20035;-86
2023/06/20 05:25:14;;;;;;;21.95;13.40;;;;;;;28.51;47.55;100954.09;4875712;29;20132;-87
2023/06/20 05:27:39;;;;;;;19.10;12.90;;;;;;;28.60;47.45;100942.75;4874265;29;20155;-87
2023/06/20 05:30:05;;;;;;;16.53;12.83;;;;;;;28.78;47.07;100944.91;4872617;29;20025;-87
2023/06/20 05:32:31;;;;;;;17.33;13.25;;;;;;;29.13;46.96;100938.09;4877929;29;20029;-86
2023/06/20 05:34:56;;;;;;;18.98;14.45;;;;;;;29.57;45.60;100933.69;4869624;29;20108;-86
2023/06/20 05:37:22;;;;;;;17.00;12.60;;;;;;;29.76;44.70;100938.09;4870465;29;20033;-86
2023/06/20 05:39:47;;;;;;;18.47;13.80;;;;;;;29.79;44.41;100928.22;4877880;29;20029;-87
2023/06/20 05:42:12;;;;;;;19.13;15.20;;;;;;;29.61;45.28;100928.94;4877232;29;20029;-86
2023/06/20 05:44:38;;;;;;;20.70;14.47;;;;;;;29.53;45.20;100916.31;4871325;29;20044;-86
2023/06/20 05:47:04;;;;;;;16.90;14.05;;;;;;;29.50;45.28;100930.88;4878025;29;20112;-86
2023/06/20 05:49:30;;;;;;;17.35;13.40;;;;;;;28.83;47.11;100933.53;4874611;29;20036;-87
2023/06/20 05:51:55;;;;;;;18.03;13.07;;;;;;;28.75;47.22;100932.69;4877009;29;20029;-86
2023/06/20 05:54:22;;;;;;;15.65;12.73;;;;;;;28.75;47.38;100927.16;4878025;29;20108;-86
2023/06/20 05:56:48;;;;;;;18.33;12.73;;;;;;;28.49;48.05;100936.34;4876805;29;20029;-87
2023/06/20 05:59:13;;;;;;;18.15;11.80;;;;;;;27.87;49.96;100934.84;4877003;29;20036;-86
2023/06/20 06:01:40;;;;;;;14.90;11.07;;;;;;;27.27;51.73;100928.91;4873594;29;20500;-87
2023/06/20 06:04:05;;;;;;;14.55;10.65;;;;;;;26.44;55.54;100927.53;4874153;29;20538;-86
2023/06/20 06:06:31;;;;;;;12.15;10.18;;;;;;;26.01;57.56;100943.94;4884650;29;20040;-86
2023/06/20 06:08:56;;;;;;;15.13;10.00;;;;;;;25.66;59.93;100936.56;4876247;29;20029;-87
2023/06/20 06:11:22;;;;;;;13.07;11.47;;;;;;;25.33;63.34;100943.25;4876691;29;20032;-86
2023/06/20 06:13:47;;;;;;;16.55;11.05;;;;;;;25.48;63.21;100947.13;4876185;29;20028;-86
2023/06/20 06:16:13;;;;;;;11.87;10.60;;;;;;;25.62;62.45;100946.66;4875352;29;20112;-86
2023/06/20 06:18:38;;;;;;;11.27;10.07;;;;;;;25.78;62.31;100946.63;4875476;29;20061;-86
2023/06/20 06:21:04;;;;;;;14.77;9.23;;;;;;;26.03;61.82;100955.38;4876542;29;20029;-86
2023/06/20 06:23:29;;;;;;;15.97;10.37;;;;;;;25.76;63.42;100944.22;4874541;29;20025;-86
2023/06/20 06:25:55;;;;;;;15.30;10.20;;;;;;;25.62;63.07;100943.91;4869391;29;20400;-86
2023/06/20 06:28:22;;;;;;;11.50;9.70;;;;;;;25.42;63.43;100946.59;4876380;29;20815;-87
2023/06/20 06:30:47;;;;;;;10.52;9.43;;;;;;;24.86;66.47;100942.13;4875298;29;20386;-87
2023/06/20 06:33:13;;;;;;;13.27;9.70;;;;;;;24.71;67.99;100932.72;4875764;29;20089;-86
2023/06/20 06:35:40;;;;;;;20.77;9.65;;;;;;;24.84;67.46;100936.97;4873316;29;20034;-89
2023/06/20 06:38:06;;;;;;;15.35;8.95;;;;;;;24.86;67.27;100942.13;4860578;29;20102;-91
2023/06/20 06:40:31;;;;;;;23.40;8.60;;;;;;;24.99;67.54;100953.81;4854567;29;20486;-86
2023/06/20 06:42:57;;;;;;;45.33;13.37;;;;;;;25.19;67.39;100958.22;4867651;29;20317;-83
2023/06/20 06:45:23;;;;;;;34.38;9.77;;;;;;;25.15;67.32;100951.84;4866110;29;20057;-85
2023/06/20 06:47:48;;;;;;;9.57;6.87;;;;;;;25.07;66.96;100945.41;4875302;29;20036;-85
2023/06/20 06:50:15;;;;;;;10.18;7.35;;;;;;;25.26;67.08;100952.09;4874749;29;20057;-85
2023/06/20 06:52:41;;;;;;;9.95;6.88;;;;;;;25.69;66.27;100938.59;4873317;29;20028;-86
2023/06/20 06:55:07;;;;;;;10.63;7.40;;;;;;;25.87;65.18;100944.44;4872331;29;20033;-83
2023/06/20 06:57:32;;;;;;;23.98;7.55;;;;;;;25.89;64.34;100949.59;4869160;29;20045;-84
2023/06/20 06:59:59;;;;;;;10.30;6.70;;;;;;;25.80;65.47;100933.34;4875608;29;20048;-83
2023/06/20 07:02:27;;;;;;;9.35;7.18;;;;;;;25.68;66.70;100939.75;4862189;29;20038;-84
2023/06/20 07:04:52;;;;;;;8.30;7.10;;;;;;;25.61;66.87;100939.56;4863854;29;20452;-85
2023/06/20 07:07:18;;;;;;;6.93;6.22;;;;;;;25.52;67.79;100939.78;4870638;29;20120;-84
2023/06/20 07:09:43;;;;;;;7.27;5.90;;;;;;;25.47;68.04;100938.13;4892777;29;20374;-86
2023/06/20 07:12:09;;;;;;;7.77;6.57;;;;;;;25.40;69.90;100946.13;4889811;29;20029;-84
2023/06/20 07:14:34;;;;;;;7.27;6.33;;;;;;;25.42;70.21;100948.53;4875673;29;20136;-84
2023/06/20 07:17:00;;;;;;;7.05;5.93;;;;;;;25.47;69.72;100943.59;4858805;29;20076;-84
2023/06/20 07:19:25;;;;;;;5.50;5.00;;;;;;;25.57;68.80;100936.75;4864448;29;20030;-84
2023/06/20 07:21:50;;;;;;;9.88;6.00;;;;;;;25.62;68.23;100932.94;4870745;29;20404;-83
2023/06/20 07:24:16;;;;;;;5.80;5.20;;;;;;;25.71;67.52;100930.81;4874508;29;20029;-84
2023/06/20 07:26:41;;;;;;;6.30;5.53;;;;;;;25.95;67.88;100931.66;4874573;29;20072;-84
2023/06/20 07:29:06;;;;;;;5.70;5.20;;;;;;;25.94;68.11;100930.06;4871245;29;20080;-84
2023/06/20 07:31:32;;;;;;;8.20;5.60;;;;;;;25.96;67.66;100936.00;4873012;29;20114;-83
2023/06/20 07:33:57;;;;;;;10.13;6.00;;;;;;;25.93;69.03;100934.00;4868579;29;20037;-85
2023/06/20 07:36:22;;;;;;;6.60;6.00;;;;;;;26.03;65.98;100930.66;4868858;29;20041;-85
2023/06/20 07:38:48;;;;;;;7.80;6.07;;;;;;;26.04;66.20;100924.03;4868765;29;20040;-84
2023/06/20 07:41:13;;;;;;;6.97;6.23;;;;;;;26.08;66.01;100921.34;4869601;29;20056;-85
2023/06/20 07:43:38;;;;;;;10.33;6.40;;;;;;;26.29;66.00;100912.75;4870037;29;20116;-83
2023/06/20 07:46:04;;;;;;;9.10;5.53;;;;;;;26.33;64.96;100910.84;4868510;29;20109;-83
2023/06/20 07:48:29;;;;;;;10.13;6.50;;;;;;;26.37;65.40;100908.19;4857290;29;20040;-83
2023/06/20 07:50:55;;;;;;;9.37;6.23;;;;;;;26.44;65.05;100916.53;4872424;29;20041;-84
2023/06/20 07:53:21;;;;;;;7.20;5.95;;;;;;;26.57;64.01;100914.44;4872720;29;20025;-83
2023/06/20 07:55:46;;;;;;;8.97;6.17;;;;;;;26.83;64.01;100927.47;4874312;29;20529;-82
2023/06/20 07:58:11;;;;;;;6.68;5.53;;;;;;;27.03;62.67;100919.13;5388312;23;20049;-83
2023/06/20 08:00:38;;;;;;;7.13;5.80;;;;;;;27.23;62.63;100925.31;4889218;29;20497;-83
2023/06/20 08:03:03;;;;;;;6.73;5.77;;;;;;;27.25;62.66;100931.25;4886608;29;20036;-83
2023/06/20 08:05:28;;;;;;;7.43;5.70;;;;;;;27.03;62.89;100933.66;4893260;29;20323;-83
2023/06/20 08:07:55;;;;;;;6.87;5.37;;;;;;;27.07;62.34;100936.50;4895158;29;20037;-82
2023/06/20 08:10:20;;;;;;;5.40;4.90;;;;;;;27.05;61.62;100938.81;4894530;29;20508;-84
2023/06/20 08:12:46;;;;;;;6.93;6.00;;;;;;;27.05;62.54;100928.59;4896036;29;20036;-84
2023/06/20 08:15:11;;;;;;;7.00;5.50;;;;;;;27.19;63.04;100924.50;4879713;29;20179;-83
2023/06/20 08:17:36;;;;;;;10.37;5.07;;;;;;;27.27;61.08;100926.16;4896000;29;20085;-84
2023/06/20 08:20:06;;;;;;;9.85;5.53;;;;;;;27.29;61.95;100921.09;4897003;29;20037;-83
2023/06/20 08:22:32;;;;;;;6.47;5.40;;;;;;;27.50;61.01;100925.34;4879459;29;20389;-83
2023/06/20 08:24:57;;;;;;;15.00;5.47;;;;;;;27.28;61.80;100918.72;4889997;29;20512;-83
2023/06/20 08:27:22;;;;;;;8.60;6.00;;;;;;;27.50;59.76;100917.88;4874995;29;20065;-84
2023/06/20 08:29:48;;;;;;;11.30;5.53;;;;;;;27.57;60.33;100919.16;4883673;29;20044;-86
2023/06/20 08:32:13;;;;;;;8.27;5.40;;;;;;;27.75;59.95;100924.91;4892807;29;20028;-87
2023/06/20 08:34:38;;;;;;;7.03;5.00;;;;;;;27.71;58.79;100924.84;4895938;29;20484;-87
2023/06/20 08:37:05;;;;;;;6.05;3.92;;;;;;;28.10;60.00;100923.78;4897198;29;20033;-85
2023/06/20 08:39:30;;;;;;;7.03;4.40;;;;;;;28.09;58.42;100922.94;4894306;29;20083;-88
2023/06/20 08:41:55;;;;;;;5.25;4.38;;;;;;;28.05;58.18;100921.31;4867948;29;20116;-88
2023/06/20 08:44:21;;;;;;;7.03;4.60;;;;;;;28.04;57.94;100914.22;4880737;29;20021;-90
2023/06/20 08:46:46;;;;;;;8.77;4.80;;;;;;;28.26;57.57;100921.59;4889484;29;20033;-88
2023/06/20 08:49:14;;;;;;;5.97;4.40;;;;;;;28.33;55.99;100926.38;4896377;29;20096;-85
2023/06/20 08:51:43;;;;;;;6.43;3.85;;;;;;;28.40;55.50;100923.66;4878007;29;20112;-87
2023/06/20 08:54:13;;;;;;;7.05;4.28;;;;;;;28.47;55.89;100933.19;4887728;29;20378;-87
2023/06/20 08:56:39;;;;;;;7.57;4.25;;;;;;;28.60;56.31;100919.94;4887571;29;20119;-85
2023/06/20 08:59:04;;;;;;;4.55;4.10;;;;;;;28.74;55.13;100917.31;4879881;29;20531;-85
2023/06/20 09:01:29;;;;;;;5.87;4.63;;;;;;;28.98;54.43;100915.16;4893351;29;20032;-84
2023/06/20 09:03:59;;;;;;;5.20;4.23;;;;;;;28.63;54.64;100916.41;4884717;29;20126;-84
2023/06/20 09:06:37;;;;;;;4.38;3.97;;;;;;;28.33;55.79;100914.53;4894708;29;20033;-87
2023/06/20 09:09:03;;;;;;;7.60;4.50;;;;;;;28.55;55.07;100907.28;4886819;29;20029;-86
2023/06/20 09:11:34;;;;;;;6.00;4.67;;;;;;;28.32;57.28;100915.72;4892185;29;20661;-87
2023/06/20 09:14:02;;;;;;;7.22;4.25;;;;;;;28.61;56.06;100907.72;4897617;29;20092;-85
2023/06/20 09:16:30;;;;;;;9.35;4.50;;;;;;;28.90;54.81;100910.75;4888542;29;20039;-85
2023/06/20 09:19:00;;;;;;;4.40;4.00;;;;;;;29.32;54.44;100909.44;4894150;29;20679;-85
2023/06/20 09:21:27;;;;;;;4.85;3.83;;;;;;;29.32;54.55;100917.72;4894976;29;20028;-85
2023/06/20 09:24:04;;;;;;;6.70;4.50;;;;;;;29.28;52.37;100912.19;4892638;29;20036;-86
2023/06/20 09:26:31;;;;;;;4.57;4.18;;;;;;;29.41;53.96;100915.44;4875867;29;20037;-85
2023/06/20 09:29:17;;;;;;;4.65;4.20;;;;;;;29.42;53.07;100921.75;4884356;29;20040;-86
2023/06/20 09:31:49;;;;;;;4.72;4.03;;;;;;;29.29;52.07;100924.81;4894464;29;20037;-87
2023/06/20 09:34:18;;;;;;;6.40;3.97;;;;;;;29.39;52.31;100926.09;4885068;29;20661;-87
2023/06/20 09:36:44;;;;;;;7.03;4.57;;;;;;;29.68;52.15;100926.22;4887671;29;20404;-85
2023/06/20 09:39:12;;;;;;;5.55;4.20;;;;;;;29.58;51.75;100919.47;4895301;29;20120;-86
2023/06/20 09:41:45;;;;;;;5.00;3.78;;;;;;;29.92;50.26;100926.72;4886710;29;20021;-85
2023/06/20 09:44:11;;;;;;;5.35;4.50;;;;;;;29.86;49.76;100917.22;4888516;29;20063;-86
2023/06/20 09:46:37;;;;;;;5.55;4.13;;;;;;;30.04;49.44;100915.34;4877104;29;20104;-85
2023/06/20 09:49:04;;;;;;;4.50;4.10;;;;;;;30.09;48.94;100921.66;4878781;29;20037;-84
2023/06/20 09:51:33;;;;;;;4.85;3.63;;;;;;;30.00;49.77;100925.59;4889494;29;20067;-84
2023/06/20 09:54:04;;;;;;;4.40;3.85;;;;;;;29.99;49.81;100917.69;4883196;29;20064;-87
2023/06/20 09:56:35;;;;;;;4.82;4.40;;;;;;;30.16;48.73;100916.16;4880023;29;20048;-89
2023/06/20 09:59:02;;;;;;;4.15;3.75;;;;;;;30.25;48.22;100915.78;4887864;29;20029;-86
2023/06/20 10:01:29;;;;;;;4.03;3.30;;;;;;;30.09;48.09;100916.16;4896077;29;20025;-86
2023/06/20 10:03:55;;;;;;;4.50;3.07;;;;;;;30.23;49.14;100913.41;4878638;29;20638;-86
2023/06/20 10:06:21;;;;;;;3.75;3.45;;;;;;;30.64;48.29;100932.44;4895597;29;20030;-86
2023/06/20 10:08:48;;;;;;;4.57;3.60;;;;;;;30.50;47.61;100922.13;4896223;29;20068;-86
2023/06/20 10:11:13;;;;;;;5.60;3.92;;;;;;;30.53;48.21;100915.03;4897503;29;20021;-89
2023/06/20 10:13:40;;;;;;;4.53;2.97;;;;;;;30.39;46.86;100910.28;4897054;29;20040;-87
2023/06/20 10:16:05;;;;;;;3.70;3.40;;;;;;;30.46;46.86;100898.44;4896377;29;20040;-87
2023/06/20 10:18:30;;;;;;;3.93;3.20;;;;;;;30.57;45.87;100904.78;4896304;29;20028;-87
2023/06/20 10:20:56;;;;;;;4.00;3.33;;;;;;;30.84;45.21;100906.38;4896293;29;20504;-86
2023/06/20 10:23:30;;;;;;;4.20;3.33;;;;;;;30.90;45.22;100900.03;4896246;29;20788;-87
2023/06/20 10:26:00;;;;;;;4.57;3.10;;;;;;;30.61;45.54;100899.25;4898021;29;20547;-88
2023/06/20 10:28:26;;;;;;;4.23;3.93;;;;;;;30.54;45.74;100896.47;4897950;29;20395;-88
2023/06/20 10:30:57;;;;;;;3.88;3.50;;;;;;;30.78;45.38;100881.09;4896082;29;20111;-87
2023/06/20 10:33:24;;;;;;;3.97;3.67;;;;;;;31.05;44.18;100880.66;4895321;29;20552;-87
2023/06/20 10:36:04;;;;;;;4.13;3.38;;;;;;;31.06;44.94;100871.97;4879005;29;20393;-87
2023/06/20 10:38:31;;;;;;;4.07;3.60;;;;;;;31.35;45.20;100865.59;4895710;29;20028;-87
2023/06/20 10:41:09;;;;;;;5.33;3.63;;;;;;;31.24;43.87;100863.63;4885472;29;20070;-87
2023/06/20 10:43:47;;;;;;;3.60;3.30;;;;;;;31.25;43.82;100854.13;4877037;29;20278;-88
2023/06/20 10:46:13;;;;;;;3.22;2.92;;;;;;;31.56;41.89;100857.22;4877958;29;20035;-87
2023/06/20 10:48:39;;;;;;;3.90;3.47;;;;;;;31.76;40.64;100859.50;4878190;29;20116;-88
2023/06/20 10:51:05;;;;;;;3.30;3.00;;;;;;;31.83;40.72;100853.91;4894811;29;20060;-88
2023/06/20 10:53:30;;;;;;;3.30;3.00;;;;;;;32.01;41.09;100856.59;4894318;29;20328;-88
2023/06/20 10:55:56;;;;;;;3.47;3.05;;;;;;;32.03;39.99;100856.16;4892567;29;20037;-88
2023/06/20 10:58:21;;;;;;;3.43;3.20;;;;;;;31.92;40.64;100852.69;4899975;29;20036;-87
2023/06/20 11:00:50;;;;;;;3.37;3.03;;;;;;;31.94;40.66;100862.16;4900953;29;20033;-87
2023/06/20 11:03:17;;;;;;;3.97;3.58;;;;;;;31.59;39.13;100844.53;4908697;29;20099;-87
2023/06/20 11:05:48;;;;;;;4.50;3.03;;;;;;;31.87;41.49;100842.81;4913232;29;20057;-87
2023/06/20 11:08:21;;;;;;;3.92;3.20;;;;;;;32.02;40.01;100837.97;4909693;29;20028;-89
2023/06/20 11:10:47;;;;;;;3.35;3.00;;;;;;;32.21;41.00;100828.34;4913641;29;20016;-88
2023/06/20 11:13:12;;;;;;;3.58;3.28;;;;;;;32.22;39.51;100829.94;4909821;29;20060;-89
2023/06/20 11:15:37;;;;;;;3.50;3.20;;;;;;;32.09;39.58;100831.59;4908861;29;20043;-87
2023/06/20 11:18:05;;;;;;;3.53;3.03;;;;;;;32.22;38.54;100838.25;4898048;29;20045;-88